sensor_id;sensor_type;location;lat;lon;timestamp;pressure;altitude;pressure_sealevel;temperature;humidity
17711;BME280;8975;57.718;12.134;2023-01-27T00:00:07;115940.22;;;-142.68;41.53
17711;BME280;8975;57.718;12.134;2023-01-27T00:02:33;115940.22;;;-142.68;41.25
17711;BME280;8975;57.718;12.134;2023-01-27T00:04:58;115940.22;;;-142.68;41.45
17711;BME280;8975;57.718;12.134;2023-01-27T00:07:24;115940.22;;;-142.68;41.07
17711;BME280;8975;57.718;12.134;2023-01-27T00:09:50;115940.22;;;-142.68;41.25
17711;BME280;8975;57.718;12.134;2023-01-27T00:12:20;115940.22;;;-142.68;41.39
17711;BME280;8975;57.718;12.134;2023-01-27T00:15:05;115940.22;;;-142.68;41.57
17711;BME280;8975;57.718;12.134;2023-01-27T00:17:32;115940.22;;;-142.68;41.34
17711;BME280;8975;57.718;12.134;2023-01-27T00:19:58;115940.22;;;-142.68;40.90
17711;BME280;8975;57.718;12.134;2023-01-27T00:22:24;115940.22;;;-142.68;41.21
17711;BME280;8975;57.718;12.134;2023-01-27T00:25:08;115940.22;;;-142.68;41.00
17711;BME280;8975;57.718;12.134;2023-01-27T00:27:33;115940.22;;;-142.68;41.81
17711;BME280;8975;57.718;12.134;2023-01-27T00:29:59;115940.22;;;-142.68;41.71
17711;BME280;8975;57.718;12.134;2023-01-27T00:32:24;115940.22;;;-142.68;41.46
17711;BME280;8975;57.718;12.134;2023-01-27T00:35:08;115940.22;;;-142.68;41.85
17711;BME280;8975;57.718;12.134;2023-01-27T00:37:35;115940.22;;;-142.68;41.83
17711;BME280;8975;57.718;12.134;2023-01-27T00:40:00;115940.22;;;-142.68;41.45
17711;BME280;8975;57.718;12.134;2023-01-27T00:42:26;115940.22;;;-142.68;41.12
17711;BME280;8975;57.718;12.134;2023-01-27T00:44:51;115940.22;;;-142.68;40.75
17711;BME280;8975;57.718;12.134;2023-01-27T00:47:35;115940.22;;;-142.68;40.36
17711;BME280;8975;57.718;12.134;2023-01-27T00:50:01;115940.22;;;-142.68;40.81
17711;BME280;8975;57.718;12.134;2023-01-27T00:52:26;115940.22;;;-142.68;40.52
17711;BME280;8975;57.718;12.134;2023-01-27T00:54:52;115940.22;;;-142.68;41.05
17711;BME280;8975;57.718;12.134;2023-01-27T00:57:17;115940.22;;;-142.68;41.22
17711;BME280;8975;57.718;12.134;2023-01-27T00:59:43;115940.22;;;-142.68;41.41
17711;BME280;8975;57.718;12.134;2023-01-27T01:02:10;115940.22;;;-142.68;41.68
17711;BME280;8975;57.718;12.134;2023-01-27T01:04:36;115940.22;;;-142.68;41.25
17711;BME280;8975;57.718;12.134;2023-01-27T01:07:01;115940.22;;;-142.68;41.26
17711;BME280;8975;57.718;12.134;2023-01-27T01:09:27;115940.22;;;-142.68;41.15
17711;BME280;8975;57.718;12.134;2023-01-27T01:11:53;115940.22;;;-142.68;41.02
17711;BME280;8975;57.718;12.134;2023-01-27T01:14:18;115940.22;;;-142.68;40.56
17711;BME280;8975;57.718;12.134;2023-01-27T01:16:43;115940.22;;;-142.68;41.05
17711;BME280;8975;57.718;12.134;2023-01-27T01:19:09;115940.22;;;-142.68;40.85
17711;BME280;8975;57.718;12.134;2023-01-27T01:21:36;115940.22;;;-142.68;40.26
17711;BME280;8975;57.718;12.134;2023-01-27T01:24:02;115940.22;;;-142.68;40.94
17711;BME280;8975;57.718;12.134;2023-01-27T01:26:27;115940.22;;;-142.68;40.49
17711;BME280;8975;57.718;12.134;2023-01-27T01:28:53;115940.22;;;-142.68;40.68
17711;BME280;8975;57.718;12.134;2023-01-27T01:31:19;115940.22;;;-142.68;40.36
17711;BME280;8975;57.718;12.134;2023-01-27T01:33:46;115940.22;;;-142.68;40.40
17711;BME280;8975;57.718;12.134;2023-01-27T01:36:16;115940.22;;;-142.68;40.19
17711;BME280;8975;57.718;12.134;2023-01-27T01:38:42;115940.22;;;-142.68;40.04
17711;BME280;8975;57.718;12.134;2023-01-27T01:41:12;115940.22;;;-142.68;40.82
17711;BME280;8975;57.718;12.134;2023-01-27T01:43:37;115940.22;;;-142.68;40.48
17711;BME280;8975;57.718;12.134;2023-01-27T01:46:03;115940.22;;;-142.68;40.98
17711;BME280;8975;57.718;12.134;2023-01-27T01:48:32;115940.22;;;-142.68;40.56
17711;BME280;8975;57.718;12.134;2023-01-27T01:51:12;115940.22;;;-142.68;40.99
17711;BME280;8975;57.718;12.134;2023-01-27T01:53:55;115940.22;;;-142.68;41.07
17711;BME280;8975;57.718;12.134;2023-01-27T01:56:30;115940.22;;;-142.68;40.84
17711;BME280;8975;57.718;12.134;2023-01-27T01:59:02;115940.22;;;-142.68;40.51
17711;BME280;8975;57.718;12.134;2023-01-27T02:01:28;115940.22;;;-142.68;40.21
17711;BME280;8975;57.718;12.134;2023-01-27T02:03:57;115940.22;;;-142.68;40.31
17711;BME280;8975;57.718;12.134;2023-01-27T02:06:24;115940.22;;;-142.68;40.15
17711;BME280;8975;57.718;12.134;2023-01-27T02:08:50;115940.22;;;-142.68;40.17
17711;BME280;8975;57.718;12.134;2023-01-27T02:11:16;115940.22;;;-142.68;40.63
17711;BME280;8975;57.718;12.134;2023-01-27T02:13:42;115940.22;;;-142.68;40.27
17711;BME280;8975;57.718;12.134;2023-01-27T02:16:09;115940.22;;;-142.68;41.02
17711;BME280;8975;57.718;12.134;2023-01-27T02:18:36;115940.22;;;-142.68;40.85
17711;BME280;8975;57.718;12.134;2023-01-27T02:21:03;115940.22;;;-142.68;41.16
17711;BME280;8975;57.718;12.134;2023-01-27T02:26:32;115940.22;;;-142.68;40.20
17711;BME280;8975;57.718;12.134;2023-01-27T02:29:05;115940.22;;;-142.68;40.68
17711;BME280;8975;57.718;12.134;2023-01-27T02:31:30;115940.22;;;-142.68;40.93
17711;BME280;8975;57.718;12.134;2023-01-27T02:34:05;115940.22;;;-142.68;40.68
17711;BME280;8975;57.718;12.134;2023-01-27T02:36:34;115940.22;;;-142.68;40.62
17711;BME280;8975;57.718;12.134;2023-01-27T02:39:02;115940.22;;;-142.68;40.37
17711;BME280;8975;57.718;12.134;2023-01-27T02:41:39;115940.22;;;-142.68;39.76
17711;BME280;8975;57.718;12.134;2023-01-27T02:44:06;115940.22;;;-142.68;40.10
17711;BME280;8975;57.718;12.134;2023-01-27T02:46:32;115940.22;;;-142.68;40.67
17711;BME280;8975;57.718;12.134;2023-01-27T02:48:57;115940.22;;;-142.68;40.57
17711;BME280;8975;57.718;12.134;2023-01-27T02:51:23;115940.22;;;-142.68;40.77
17711;BME280;8975;57.718;12.134;2023-01-27T02:53:49;115940.22;;;-142.68;40.60
17711;BME280;8975;57.718;12.134;2023-01-27T02:56:14;115940.22;;;-142.68;40.54
17711;BME280;8975;57.718;12.134;2023-01-27T02:58:39;115940.22;;;-142.68;39.98
17711;BME280;8975;57.718;12.134;2023-01-27T03:01:05;115940.22;;;-142.68;39.75
17711;BME280;8975;57.718;12.134;2023-01-27T03:03:31;115940.22;;;-142.68;39.72
17711;BME280;8975;57.718;12.134;2023-01-27T03:05:57;115940.22;;;-142.68;40.03
17711;BME280;8975;57.718;12.134;2023-01-27T03:08:22;115940.22;;;-142.68;40.07
17711;BME280;8975;57.718;12.134;2023-01-27T03:10:52;115940.22;;;-142.68;39.97
17711;BME280;8975;57.718;12.134;2023-01-27T03:13:24;115940.22;;;-142.68;40.05
17711;BME280;8975;57.718;12.134;2023-01-27T03:15:50;115940.22;;;-142.68;40.18
17711;BME280;8975;57.718;12.134;2023-01-27T03:18:35;115940.22;;;-142.68;39.71
17711;BME280;8975;57.718;12.134;2023-01-27T03:21:03;115940.22;;;-142.68;39.84
17711;BME280;8975;57.718;12.134;2023-01-27T03:23:29;115940.22;;;-142.68;39.83
17711;BME280;8975;57.718;12.134;2023-01-27T03:25:59;115940.22;;;-142.68;39.71
17711;BME280;8975;57.718;12.134;2023-01-27T03:28:24;115940.22;;;-142.68;39.61
17711;BME280;8975;57.718;12.134;2023-01-27T03:30:50;115940.22;;;-142.68;39.74
17711;BME280;8975;57.718;12.134;2023-01-27T03:33:15;115940.22;;;-142.68;39.61
17711;BME280;8975;57.718;12.134;2023-01-27T03:35:41;115940.22;;;-142.68;39.61
17711;BME280;8975;57.718;12.134;2023-01-27T03:38:13;115940.22;;;-142.68;39.54
17711;BME280;8975;57.718;12.134;2023-01-27T03:40:57;115940.22;;;-142.68;39.74
17711;BME280;8975;57.718;12.134;2023-01-27T03:43:41;115940.22;;;-142.68;39.73
17711;BME280;8975;57.718;12.134;2023-01-27T03:46:25;115940.22;;;-142.68;39.40
17711;BME280;8975;57.718;12.134;2023-01-27T03:48:54;115940.22;;;-142.68;39.76
17711;BME280;8975;57.718;12.134;2023-01-27T03:51:22;115940.22;;;-142.68;40.02
17711;BME280;8975;57.718;12.134;2023-01-27T03:53:48;115940.22;;;-142.68;39.84
17711;BME280;8975;57.718;12.134;2023-01-27T03:56:15;115940.22;;;-142.68;39.69
17711;BME280;8975;57.718;12.134;2023-01-27T03:58:41;115940.22;;;-142.68;40.50
17711;BME280;8975;57.718;12.134;2023-01-27T04:01:19;115940.22;;;-142.68;39.73
17711;BME280;8975;57.718;12.134;2023-01-27T04:03:45;115940.22;;;-142.68;39.51
17711;BME280;8975;57.718;12.134;2023-01-27T04:06:31;115940.22;;;-142.68;39.51
17711;BME280;8975;57.718;12.134;2023-01-27T04:09:21;115940.22;;;-142.68;39.77
17711;BME280;8975;57.718;12.134;2023-01-27T04:11:47;115940.22;;;-142.68;40.15
17711;BME280;8975;57.718;12.134;2023-01-27T04:16:55;115940.22;;;-142.68;40.01
17711;BME280;8975;57.718;12.134;2023-01-27T04:19:21;115940.22;;;-142.68;40.41
17711;BME280;8975;57.718;12.134;2023-01-27T04:21:47;115940.22;;;-142.68;40.23
17711;BME280;8975;57.718;12.134;2023-01-27T04:24:13;115940.22;;;-142.68;39.95
17711;BME280;8975;57.718;12.134;2023-01-27T04:26:48;115940.22;;;-142.68;39.48
17711;BME280;8975;57.718;12.134;2023-01-27T04:29:14;115940.22;;;-142.68;39.38
17711;BME280;8975;57.718;12.134;2023-01-27T04:31:39;115940.22;;;-142.68;40.70
17711;BME280;8975;57.718;12.134;2023-01-27T04:34:05;115940.22;;;-142.68;40.34
17711;BME280;8975;57.718;12.134;2023-01-27T04:36:31;115940.22;;;-142.68;40.02
17711;BME280;8975;57.718;12.134;2023-01-27T04:38:57;115940.22;;;-142.68;39.77
17711;BME280;8975;57.718;12.134;2023-01-27T04:41:22;115940.22;;;-142.68;39.79
17711;BME280;8975;57.718;12.134;2023-01-27T04:43:48;115940.22;;;-142.68;39.69
17711;BME280;8975;57.718;12.134;2023-01-27T04:46:13;115940.22;;;-142.68;39.56
17711;BME280;8975;57.718;12.134;2023-01-27T04:48:38;115940.22;;;-142.68;39.72
17711;BME280;8975;57.718;12.134;2023-01-27T04:51:04;115940.22;;;-142.68;39.15
17711;BME280;8975;57.718;12.134;2023-01-27T04:53:29;115940.22;;;-142.68;39.56
17711;BME280;8975;57.718;12.134;2023-01-27T04:56:03;115940.22;;;-142.68;39.74
17711;BME280;8975;57.718;12.134;2023-01-27T04:58:29;115940.22;;;-142.68;40.48
17711;BME280;8975;57.718;12.134;2023-01-27T05:00:54;115940.22;;;-142.68;40.78
17711;BME280;8975;57.718;12.134;2023-01-27T05:03:20;115940.22;;;-142.68;40.13
17711;BME280;8975;57.718;12.134;2023-01-27T05:05:45;115940.22;;;-142.68;40.28
17711;BME280;8975;57.718;12.134;2023-01-27T05:08:10;115940.22;;;-142.68;40.09
17711;BME280;8975;57.718;12.134;2023-01-27T05:10:36;115940.22;;;-142.68;39.88
17711;BME280;8975;57.718;12.134;2023-01-27T05:13:02;115940.22;;;-142.68;40.27
17711;BME280;8975;57.718;12.134;2023-01-27T05:15:28;115940.22;;;-142.68;41.11
17711;BME280;8975;57.718;12.134;2023-01-27T05:17:54;115940.22;;;-142.68;40.56
17711;BME280;8975;57.718;12.134;2023-01-27T05:20:20;115940.22;;;-142.68;41.28
17711;BME280;8975;57.718;12.134;2023-01-27T05:22:45;115940.22;;;-142.68;41.63
17711;BME280;8975;57.718;12.134;2023-01-27T05:25:11;115940.22;;;-142.68;41.61
17711;BME280;8975;57.718;12.134;2023-01-27T05:27:36;115940.22;;;-142.68;41.74
17711;BME280;8975;57.718;12.134;2023-01-27T05:30:02;115940.22;;;-142.68;41.42
17711;BME280;8975;57.718;12.134;2023-01-27T05:32:28;115940.22;;;-142.68;41.33
17711;BME280;8975;57.718;12.134;2023-01-27T05:34:53;115940.22;;;-142.68;41.45
17711;BME280;8975;57.718;12.134;2023-01-27T05:37:18;115940.22;;;-142.68;42.00
17711;BME280;8975;57.718;12.134;2023-01-27T05:39:44;115940.22;;;-142.68;41.76
17711;BME280;8975;57.718;12.134;2023-01-27T05:42:09;115940.22;;;-142.68;41.93
17711;BME280;8975;57.718;12.134;2023-01-27T05:44:35;115940.22;;;-142.68;41.95
17711;BME280;8975;57.718;12.134;2023-01-27T05:47:00;115940.22;;;-142.68;42.13
17711;BME280;8975;57.718;12.134;2023-01-27T05:49:26;115940.22;;;-142.68;41.83
17711;BME280;8975;57.718;12.134;2023-01-27T05:51:51;115940.22;;;-142.68;41.33
17711;BME280;8975;57.718;12.134;2023-01-27T05:54:17;115940.22;;;-142.68;41.21
17711;BME280;8975;57.718;12.134;2023-01-27T05:56:42;115940.22;;;-142.68;41.54
17711;BME280;8975;57.718;12.134;2023-01-27T05:59:09;115940.22;;;-142.68;41.23
17711;BME280;8975;57.718;12.134;2023-01-27T06:01:35;115940.22;;;-142.68;41.57
17711;BME280;8975;57.718;12.134;2023-01-27T06:04:02;115940.22;;;-142.68;41.49
17711;BME280;8975;57.718;12.134;2023-01-27T06:06:29;115940.22;;;-142.68;41.55
17711;BME280;8975;57.718;12.134;2023-01-27T06:08:55;115940.22;;;-142.68;41.52
17711;BME280;8975;57.718;12.134;2023-01-27T06:11:20;115940.22;;;-142.68;41.65
17711;BME280;8975;57.718;12.134;2023-01-27T06:13:47;115940.22;;;-142.68;41.04
17711;BME280;8975;57.718;12.134;2023-01-27T06:16:14;115940.22;;;-142.68;41.84
17711;BME280;8975;57.718;12.134;2023-01-27T06:18:41;115940.22;;;-142.68;41.02
17711;BME280;8975;57.718;12.134;2023-01-27T06:21:09;115940.22;;;-142.68;41.04
17711;BME280;8975;57.718;12.134;2023-01-27T06:23:36;115940.22;;;-142.68;41.39
17711;BME280;8975;57.718;12.134;2023-01-27T06:26:05;115940.22;;;-142.68;41.03
17711;BME280;8975;57.718;12.134;2023-01-27T06:28:31;115940.22;;;-142.68;40.59
17711;BME280;8975;57.718;12.134;2023-01-27T06:31:07;115940.22;;;-142.68;40.40
17711;BME280;8975;57.718;12.134;2023-01-27T06:33:32;115940.22;;;-142.68;40.14
17711;BME280;8975;57.718;12.134;2023-01-27T06:36:06;115940.22;;;-142.68;40.27
17711;BME280;8975;57.718;12.134;2023-01-27T06:38:32;115940.22;;;-142.68;40.70
17711;BME280;8975;57.718;12.134;2023-01-27T06:40:58;115940.22;;;-142.68;41.00
17711;BME280;8975;57.718;12.134;2023-01-27T06:43:24;115940.22;;;-142.68;40.68
17711;BME280;8975;57.718;12.134;2023-01-27T06:45:50;115940.22;;;-142.68;41.31
17711;BME280;8975;57.718;12.134;2023-01-27T06:48:15;115940.22;;;-142.68;41.06
17711;BME280;8975;57.718;12.134;2023-01-27T06:50:41;115940.22;;;-142.68;40.41
17711;BME280;8975;57.718;12.134;2023-01-27T06:53:07;115940.22;;;-142.68;40.37
17711;BME280;8975;57.718;12.134;2023-01-27T06:55:34;115940.22;;;-142.68;39.94
17711;BME280;8975;57.718;12.134;2023-01-27T06:58:00;115940.22;;;-142.68;41.02
17711;BME280;8975;57.718;12.134;2023-01-27T07:00:26;115940.22;;;-142.68;40.96
17711;BME280;8975;57.718;12.134;2023-01-27T07:02:54;115940.22;;;-142.68;40.80
17711;BME280;8975;57.718;12.134;2023-01-27T07:05:20;115940.22;;;-142.68;41.24
17711;BME280;8975;57.718;12.134;2023-01-27T07:07:45;115940.22;;;-142.68;40.87
17711;BME280;8975;57.718;12.134;2023-01-27T07:10:10;115940.22;;;-142.68;41.00
17711;BME280;8975;57.718;12.134;2023-01-27T07:12:36;115940.22;;;-142.68;41.36
17711;BME280;8975;57.718;12.134;2023-01-27T07:15:06;115940.22;;;-142.68;40.94
17711;BME280;8975;57.718;12.134;2023-01-27T07:17:33;115940.22;;;-142.68;40.05
17711;BME280;8975;57.718;12.134;2023-01-27T07:19:58;115940.22;;;-142.68;40.33
17711;BME280;8975;57.718;12.134;2023-01-27T07:22:24;115940.22;;;-142.68;40.26
17711;BME280;8975;57.718;12.134;2023-01-27T07:24:50;115940.22;;;-142.68;40.29
17711;BME280;8975;57.718;12.134;2023-01-27T07:27:16;115940.22;;;-142.68;40.61
17711;BME280;8975;57.718;12.134;2023-01-27T07:29:41;115940.22;;;-142.68;40.19
17711;BME280;8975;57.718;12.134;2023-01-27T07:32:07;115940.22;;;-142.68;39.69
17711;BME280;8975;57.718;12.134;2023-01-27T07:34:32;115940.22;;;-142.68;40.23
17711;BME280;8975;57.718;12.134;2023-01-27T07:36:57;115940.22;;;-142.68;40.38
17711;BME280;8975;57.718;12.134;2023-01-27T07:39:23;115940.22;;;-142.68;40.21
17711;BME280;8975;57.718;12.134;2023-01-27T07:41:51;115940.22;;;-142.68;40.26
17711;BME280;8975;57.718;12.134;2023-01-27T07:44:16;115940.22;;;-142.68;40.25
17711;BME280;8975;57.718;12.134;2023-01-27T07:46:42;115940.22;;;-142.68;40.98
17711;BME280;8975;57.718;12.134;2023-01-27T07:49:07;115940.22;;;-142.68;41.11
17711;BME280;8975;57.718;12.134;2023-01-27T07:51:33;115940.22;;;-142.68;40.57
17711;BME280;8975;57.718;12.134;2023-01-27T07:53:59;115940.22;;;-142.68;40.97
17711;BME280;8975;57.718;12.134;2023-01-27T07:56:24;115940.22;;;-142.68;40.83
17711;BME280;8975;57.718;12.134;2023-01-27T07:58:53;115940.22;;;-142.68;40.46
17711;BME280;8975;57.718;12.134;2023-01-27T08:01:18;115940.22;;;-142.68;41.27
17711;BME280;8975;57.718;12.134;2023-01-27T08:03:44;115940.22;;;-142.68;41.12
17711;BME280;8975;57.718;12.134;2023-01-27T08:06:11;115940.22;;;-142.68;40.64
17711;BME280;8975;57.718;12.134;2023-01-27T08:08:37;115940.22;;;-142.68;40.54
17711;BME280;8975;57.718;12.134;2023-01-27T08:11:06;115940.22;;;-142.68;41.24
17711;BME280;8975;57.718;12.134;2023-01-27T08:13:34;115940.22;;;-142.68;41.11
17711;BME280;8975;57.718;12.134;2023-01-27T08:16:01;115940.22;;;-142.68;40.80
17711;BME280;8975;57.718;12.134;2023-01-27T08:18:28;115940.22;;;-142.68;41.14
17711;BME280;8975;57.718;12.134;2023-01-27T08:20:54;115940.22;;;-142.68;41.04
17711;BME280;8975;57.718;12.134;2023-01-27T08:23:23;115940.22;;;-142.68;40.60
17711;BME280;8975;57.718;12.134;2023-01-27T08:25:52;115940.22;;;-142.68;40.09
17711;BME280;8975;57.718;12.134;2023-01-27T08:28:19;115940.22;;;-142.68;40.51
17711;BME280;8975;57.718;12.134;2023-01-27T08:30:45;115940.22;;;-142.68;40.29
17711;BME280;8975;57.718;12.134;2023-01-27T08:33:11;115940.22;;;-142.68;40.16
17711;BME280;8975;57.718;12.134;2023-01-27T08:35:37;115940.22;;;-142.68;40.84
17711;BME280;8975;57.718;12.134;2023-01-27T08:38:07;115940.22;;;-142.68;40.37
17711;BME280;8975;57.718;12.134;2023-01-27T08:40:32;115940.22;;;-142.68;40.83
17711;BME280;8975;57.718;12.134;2023-01-27T08:42:58;115940.22;;;-142.68;40.79
17711;BME280;8975;57.718;12.134;2023-01-27T08:45:26;115940.22;;;-142.68;41.08
17711;BME280;8975;57.718;12.134;2023-01-27T08:47:51;115940.22;;;-142.68;40.83
17711;BME280;8975;57.718;12.134;2023-01-27T08:50:17;115940.22;;;-142.68;40.69
17711;BME280;8975;57.718;12.134;2023-01-27T08:52:43;115940.22;;;-142.68;40.62
17711;BME280;8975;57.718;12.134;2023-01-27T08:55:08;115940.22;;;-142.68;41.13
17711;BME280;8975;57.718;12.134;2023-01-27T08:57:34;115940.22;;;-142.68;41.05
17711;BME280;8975;57.718;12.134;2023-01-27T08:59:59;115940.22;;;-142.68;41.60
17711;BME280;8975;57.718;12.134;2023-01-27T09:02:25;115940.22;;;-142.68;41.05
17711;BME280;8975;57.718;12.134;2023-01-27T09:04:51;115940.22;;;-142.68;41.38
17711;BME280;8975;57.718;12.134;2023-01-27T09:07:16;115940.22;;;-142.68;41.19
17711;BME280;8975;57.718;12.134;2023-01-27T09:09:45;115940.22;;;-142.68;41.23
17711;BME280;8975;57.718;12.134;2023-01-27T09:12:10;115940.22;;;-142.68;41.29
17711;BME280;8975;57.718;12.134;2023-01-27T09:14:36;115940.22;;;-142.68;41.29
17711;BME280;8975;57.718;12.134;2023-01-27T09:17:01;115940.22;;;-142.68;41.44
17711;BME280;8975;57.718;12.134;2023-01-27T09:19:27;115940.22;;;-142.68;41.06
17711;BME280;8975;57.718;12.134;2023-01-27T09:21:52;115940.22;;;-142.68;41.19
17711;BME280;8975;57.718;12.134;2023-01-27T09:24:18;115940.22;;;-142.68;41.16
17711;BME280;8975;57.718;12.134;2023-01-27T09:26:44;115940.22;;;-142.68;41.25
17711;BME280;8975;57.718;12.134;2023-01-27T09:29:10;115940.22;;;-142.68;41.41
17711;BME280;8975;57.718;12.134;2023-01-27T09:31:36;115940.22;;;-142.68;41.36
17711;BME280;8975;57.718;12.134;2023-01-27T09:34:01;115940.22;;;-142.68;41.41
17711;BME280;8975;57.718;12.134;2023-01-27T09:36:28;115940.22;;;-142.68;41.59
17711;BME280;8975;57.718;12.134;2023-01-27T09:38:59;115940.22;;;-142.68;41.25
17711;BME280;8975;57.718;12.134;2023-01-27T09:47:26;115940.22;;;-142.68;41.69
17711;BME280;8975;57.718;12.134;2023-01-27T10:11:36;115940.22;;;-142.68;42.76
17711;BME280;8975;57.718;12.134;2023-01-27T10:16:56;115940.22;;;-142.68;43.32
17711;BME280;8975;57.718;12.134;2023-01-27T10:19:44;115940.22;;;-142.68;43.19
17711;BME280;8975;57.718;12.134;2023-01-27T10:27:40;115940.22;;;-142.68;43.48
17711;BME280;8975;57.718;12.134;2023-01-27T10:30:12;115940.22;;;-142.68;43.29
17711;BME280;8975;57.718;12.134;2023-01-27T10:33:28;115940.22;;;-142.68;42.81
17711;BME280;8975;57.718;12.134;2023-01-27T10:41:35;115940.22;;;-142.68;42.54
17711;BME280;8975;57.718;12.134;2023-01-27T10:46:47;115940.22;;;-142.68;43.31
17711;BME280;8975;57.718;12.134;2023-01-27T10:51:56;115940.22;;;-142.68;42.94
17711;BME280;8975;57.718;12.134;2023-01-27T10:54:30;115940.22;;;-142.68;42.86
17711;BME280;8975;57.718;12.134;2023-01-27T10:57:01;115940.22;;;-142.68;42.77
17711;BME280;8975;57.718;12.134;2023-01-27T10:59:37;115940.22;;;-142.68;42.87
17711;BME280;8975;57.718;12.134;2023-01-27T11:02:19;115940.22;;;-142.68;43.20
17711;BME280;8975;57.718;12.134;2023-01-27T11:04:54;115940.22;;;-142.68;43.60
17711;BME280;8975;57.718;12.134;2023-01-27T11:07:23;115940.22;;;-142.68;43.95
17711;BME280;8975;57.718;12.134;2023-01-27T11:10:07;115940.22;;;-142.68;43.88
17711;BME280;8975;57.718;12.134;2023-01-27T11:12:42;115940.22;;;-142.68;44.02
17711;BME280;8975;57.718;12.134;2023-01-27T11:15:19;115940.22;;;-142.68;44.07
17711;BME280;8975;57.718;12.134;2023-01-27T11:17:59;115940.22;;;-142.68;43.73
17711;BME280;8975;57.718;12.134;2023-01-27T11:20:35;115940.22;;;-142.68;43.84
17711;BME280;8975;57.718;12.134;2023-01-27T11:26:03;115940.22;;;-142.68;44.18
17711;BME280;8975;57.718;12.134;2023-01-27T11:37:16;115940.22;;;-142.68;44.55
17711;BME280;8975;57.718;12.134;2023-01-27T11:39:45;115940.22;;;-142.68;44.59
17711;BME280;8975;57.718;12.134;2023-01-27T11:42:10;115940.22;;;-142.68;44.12
17711;BME280;8975;57.718;12.134;2023-01-27T11:44:37;115940.22;;;-142.68;43.76
17711;BME280;8975;57.718;12.134;2023-01-27T11:47:05;115940.22;;;-142.68;43.83
17711;BME280;8975;57.718;12.134;2023-01-27T11:49:38;115940.22;;;-142.68;43.96
17711;BME280;8975;57.718;12.134;2023-01-27T11:52:14;115940.22;;;-142.68;43.96
17711;BME280;8975;57.718;12.134;2023-01-27T11:55:04;115940.22;;;-142.68;43.59
17711;BME280;8975;57.718;12.134;2023-01-27T11:57:31;115940.22;;;-142.68;43.50
17711;BME280;8975;57.718;12.134;2023-01-27T12:00:20;115940.22;;;-142.68;42.94
17711;BME280;8975;57.718;12.134;2023-01-27T12:02:58;115940.22;;;-142.68;43.19
17711;BME280;8975;57.718;12.134;2023-01-27T12:05:31;115940.22;;;-142.68;43.43
17711;BME280;8975;57.718;12.134;2023-01-27T12:08:00;115940.22;;;-142.68;42.61
17711;BME280;8975;57.718;12.134;2023-01-27T12:10:34;115940.22;;;-142.68;42.82
17711;BME280;8975;57.718;12.134;2023-01-27T12:13:15;115940.22;;;-142.68;43.40
17711;BME280;8975;57.718;12.134;2023-01-27T12:15:55;115940.22;;;-142.68;44.05
17711;BME280;8975;57.718;12.134;2023-01-27T12:18:22;115940.22;;;-142.68;43.60
17711;BME280;8975;57.718;12.134;2023-01-27T12:20:57;115940.22;;;-142.68;42.60
17711;BME280;8975;57.718;12.134;2023-01-27T12:23:51;115940.22;;;-142.68;42.70
17711;BME280;8975;57.718;12.134;2023-01-27T12:26:37;115940.22;;;-142.68;42.81
17711;BME280;8975;57.718;12.134;2023-01-27T12:29:06;115940.22;;;-142.68;43.04
17711;BME280;8975;57.718;12.134;2023-01-27T12:31:45;115940.22;;;-142.68;43.06
17711;BME280;8975;57.718;12.134;2023-01-27T12:36:45;115940.22;;;-142.68;42.41
17711;BME280;8975;57.718;12.134;2023-01-27T12:39:51;115940.22;;;-142.68;42.98
17711;BME280;8975;57.718;12.134;2023-01-27T12:42:37;115940.22;;;-142.68;42.30
17711;BME280;8975;57.718;12.134;2023-01-27T12:45:30;115940.22;;;-142.68;42.44
17711;BME280;8975;57.718;12.134;2023-01-27T12:53:04;115940.22;;;-142.68;41.60
17711;BME280;8975;57.718;12.134;2023-01-27T12:55:38;115940.22;;;-142.68;42.04
17711;BME280;8975;57.718;12.134;2023-01-27T12:58:04;115940.22;;;-142.68;42.17
17711;BME280;8975;57.718;12.134;2023-01-27T13:00:30;115940.22;;;-142.68;42.00
17711;BME280;8975;57.718;12.134;2023-01-27T13:03:05;115940.22;;;-142.68;41.78
17711;BME280;8975;57.718;12.134;2023-01-27T13:05:38;115940.22;;;-142.68;41.67
17711;BME280;8975;57.718;12.134;2023-01-27T13:08:14;115940.22;;;-142.68;40.98
17711;BME280;8975;57.718;12.134;2023-01-27T13:10:53;115940.22;;;-142.68;41.03
17711;BME280;8975;57.718;12.134;2023-01-27T13:13:23;115940.22;;;-142.68;41.64
17711;BME280;8975;57.718;12.134;2023-01-27T13:15:51;115940.22;;;-142.68;41.51
17711;BME280;8975;57.718;12.134;2023-01-27T13:18:19;115940.22;;;-142.68;41.58
17711;BME280;8975;57.718;12.134;2023-01-27T13:20:49;115940.22;;;-142.68;40.94
17711;BME280;8975;57.718;12.134;2023-01-27T13:23:33;115940.22;;;-142.68;40.82
17711;BME280;8975;57.718;12.134;2023-01-27T13:29:05;115940.22;;;-142.68;40.19
17711;BME280;8975;57.718;12.134;2023-01-27T13:37:48;115940.22;;;-142.68;39.74
17711;BME280;8975;57.718;12.134;2023-01-27T13:40:23;115940.22;;;-142.68;39.94
17711;BME280;8975;57.718;12.134;2023-01-27T13:43:01;115940.22;;;-142.68;39.69
17711;BME280;8975;57.718;12.134;2023-01-27T13:45:52;115940.22;;;-142.68;39.72
17711;BME280;8975;57.718;12.134;2023-01-27T13:48:23;115940.22;;;-142.68;40.17
17711;BME280;8975;57.718;12.134;2023-01-27T13:51:06;115940.22;;;-142.68;40.09
17711;BME280;8975;57.718;12.134;2023-01-27T13:53:34;115940.22;;;-142.68;40.43
17711;BME280;8975;57.718;12.134;2023-01-27T14:09:44;115940.22;;;-142.68;40.02
17711;BME280;8975;57.718;12.134;2023-01-27T14:12:24;115940.22;;;-142.68;40.23
17711;BME280;8975;57.718;12.134;2023-01-27T14:18:21;115940.22;;;-142.68;41.18